createdAt,value
2018-03-23T00:00:07.164Z,46.40
2018-03-23T00:01:07.145Z,47.00
2018-03-23T00:02:07.111Z,46.10
2018-03-23T00:03:07.091Z,43.90
2018-03-23T00:04:07.058Z,43.30
2018-03-23T00:05:07.034Z,45.50
2018-03-23T00:06:07.000Z,44.50
2018-03-23T00:07:06.982Z,43.00
2018-03-23T00:08:06.960Z,43.10
2018-03-23T00:09:06.926Z,43.60
2018-03-23T00:10:06.896Z,44.30
2018-03-23T00:11:06.866Z,42.10
2018-03-23T00:12:06.837Z,43.80
2018-03-23T00:13:06.843Z,40.10
2018-03-23T00:14:06.785Z,42.50
2018-03-23T00:15:06.765Z,40.60
2018-03-23T00:16:06.754Z,43.90
2018-03-23T00:17:06.702Z,43.10
2018-03-23T00:18:06.682Z,43.80
2018-03-23T00:19:06.674Z,42.20
2018-03-23T00:20:06.626Z,40.80
2018-03-23T00:21:06.598Z,42.20
2018-03-23T00:22:06.574Z,40.20
2018-03-23T00:23:06.534Z,41.20
2018-03-23T00:24:06.515Z,39.40
2018-03-23T00:25:06.481Z,39.80
2018-03-23T00:26:06.453Z,39.00
2018-03-23T00:27:06.431Z,39.60
2018-03-23T00:28:06.407Z,40.50
2018-03-23T00:29:06.368Z,42.20
2018-03-23T00:30:06.353Z,39.10
2018-03-23T00:31:06.321Z,39.40
2018-03-23T00:32:06.296Z,39.60
2018-03-23T00:33:06.268Z,39.30
2018-03-23T00:34:06.236Z,40.40
2018-03-23T00:35:06.209Z,39.10
2018-03-23T00:36:06.185Z,39.90
2018-03-23T00:37:06.158Z,38.20
2018-03-23T00:38:06.138Z,38.20
2018-03-23T00:39:06.107Z,40.40
2018-03-23T00:40:06.076Z,38.30
2018-03-23T00:41:06.051Z,39.50
2018-03-23T00:42:06.023Z,40.40
2018-03-23T00:43:05.992Z,38.00
2018-03-23T00:44:05.965Z,39.20
2018-03-23T00:45:05.945Z,40.90
2018-03-23T00:46:05.909Z,38.10
2018-03-23T00:47:05.882Z,38.00
2018-03-23T00:48:05.864Z,38.00
2018-03-23T00:49:05.827Z,37.00
2018-03-23T00:50:05.806Z,38.80
2018-03-23T00:51:05.775Z,34.50
2018-03-23T00:52:05.749Z,37.00
2018-03-23T00:53:05.725Z,37.80
2018-03-23T00:54:05.699Z,37.00
2018-03-23T00:55:05.669Z,37.80
2018-03-23T00:56:05.637Z,37.20
2018-03-23T00:57:05.609Z,36.40
2018-03-23T00:58:05.587Z,35.70
2018-03-23T00:59:05.557Z,35.70
2018-03-23T01:00:05.530Z,36.30
2018-03-23T01:01:05.501Z,35.50
2018-03-23T01:02:05.481Z,36.60
2018-03-23T01:03:05.450Z,37.20
2018-03-23T01:04:05.426Z,35.80
2018-03-23T01:05:05.397Z,36.50
2018-03-23T01:06:05.365Z,34.00
2018-03-23T01:07:05.337Z,35.80
2018-03-23T01:08:05.312Z,36.60
2018-03-23T01:09:05.287Z,36.90
2018-03-23T01:10:05.255Z,36.20
2018-03-23T01:11:05.229Z,35.60
2018-03-23T01:12:05.208Z,37.60
2018-03-23T01:13:05.175Z,35.10
2018-03-23T01:14:05.148Z,38.50
2018-03-23T01:15:05.124Z,38.10
2018-03-23T01:16:05.094Z,36.00
2018-03-23T01:17:05.070Z,39.20
2018-03-23T01:18:05.041Z,37.20
2018-03-23T01:19:05.016Z,38.00
2018-03-23T01:20:04.996Z,36.90
2018-03-23T01:21:04.958Z,36.80
2018-03-23T01:22:04.936Z,38.20
2018-03-23T01:23:04.897Z,38.60
2018-03-23T01:24:04.873Z,38.40
2018-03-23T01:25:04.852Z,37.90
2018-03-23T01:26:04.823Z,37.00
2018-03-23T01:27:04.788Z,40.40
2018-03-23T01:28:04.772Z,37.80
2018-03-23T01:29:04.740Z,39.20
2018-03-23T01:30:04.708Z,39.50
2018-03-23T01:31:04.689Z,38.00
2018-03-23T01:32:04.661Z,41.20
2018-03-23T01:33:04.627Z,39.00
2018-03-23T01:34:04.602Z,40.10
2018-03-23T01:35:04.574Z,40.30
2018-03-23T01:36:04.550Z,41.10
2018-03-23T01:37:04.523Z,40.60
2018-03-23T01:38:04.494Z,39.60
2018-03-23T01:39:04.475Z,39.20
2018-03-23T01:40:04.442Z,41.00
2018-03-23T01:41:04.422Z,40.00
2018-03-23T01:42:04.390Z,39.40
2018-03-23T01:43:04.361Z,41.00
2018-03-23T01:44:04.329Z,41.20
2018-03-23T01:45:04.309Z,40.90
2018-03-23T01:46:04.278Z,40.70
2018-03-23T01:47:04.260Z,38.60
2018-03-23T01:48:04.225Z,40.00
2018-03-23T01:49:04.200Z,38.60
2018-03-23T01:50:04.171Z,38.70
2018-03-23T01:51:04.139Z,42.60
2018-03-23T01:52:04.122Z,40.90
2018-03-23T01:53:04.087Z,41.70
2018-03-23T01:54:04.062Z,40.20
2018-03-23T01:55:04.029Z,40.70
2018-03-23T01:56:04.005Z,43.50
2018-03-23T01:57:03.981Z,42.30
2018-03-23T01:58:03.947Z,44.30
2018-03-23T01:59:03.926Z,44.10
2018-03-23T02:00:03.900Z,44.10
2018-03-23T02:01:03.881Z,45.00
2018-03-23T02:02:03.840Z,47.30
2018-03-23T02:03:03.813Z,47.20
2018-03-23T02:04:03.783Z,48.70
2018-03-23T02:05:03.763Z,47.90
2018-03-23T02:06:03.734Z,49.20
2018-03-23T02:07:03.704Z,51.10
2018-03-23T02:08:03.679Z,50.90
2018-03-23T02:09:03.650Z,52.90
2018-03-23T02:10:03.639Z,52.90
2018-03-23T02:11:03.603Z,52.10
2018-03-23T02:12:03.571Z,56.20
2018-03-23T02:13:03.552Z,56.70
2018-03-23T02:14:03.521Z,57.50
2018-03-23T02:15:03.487Z,57.10
2018-03-23T02:16:03.469Z,57.10
2018-03-23T02:17:03.438Z,57.50
2018-03-23T02:18:03.408Z,55.50
2018-03-23T02:19:03.384Z,54.70
2018-03-23T02:20:03.349Z,56.80
2018-03-23T02:21:03.331Z,60.70
2018-03-23T02:22:03.303Z,58.50
2018-03-23T02:23:03.278Z,60.60
2018-03-23T02:24:03.245Z,63.40
2018-03-23T02:25:03.226Z,61.60
2018-03-23T02:26:03.195Z,66.80
2018-03-23T02:27:03.161Z,67.80
2018-03-23T02:28:03.138Z,69.50
2018-03-23T02:29:03.112Z,69.40
2018-03-23T02:30:03.092Z,66.70
2018-03-23T02:31:03.051Z,70.80
2018-03-23T02:32:03.037Z,65.80
2018-03-23T02:33:02.999Z,65.90
2018-03-23T02:34:02.972Z,69.80
2018-03-23T02:35:02.951Z,72.00
2018-03-23T02:36:02.919Z,75.10
2018-03-23T02:37:02.897Z,73.70
2018-03-23T02:38:02.861Z,71.80
2018-03-23T02:39:02.844Z,73.80
2018-03-23T02:40:02.818Z,75.10
2018-03-23T02:41:02.780Z,76.60
2018-03-23T02:42:02.765Z,73.20
2018-03-23T02:43:02.735Z,75.20
2018-03-23T02:44:02.705Z,74.60
2018-03-23T02:45:02.679Z,75.50
2018-03-23T02:46:02.655Z,71.10
2018-03-23T02:47:02.619Z,75.60
2018-03-23T02:48:02.595Z,77.10
2018-03-23T02:49:02.576Z,73.00
2018-03-23T02:50:02.544Z,77.60
2018-03-23T02:51:02.522Z,71.60
2018-03-23T02:52:02.483Z,75.70
2018-03-23T02:53:02.459Z,73.40
2018-03-23T02:54:02.442Z,71.30
2018-03-23T02:55:02.472Z,76.00
2018-03-23T02:56:02.377Z,76.40
2018-03-23T02:57:02.351Z,81.30
2018-03-23T02:58:02.324Z,80.40
2018-03-23T02:59:02.299Z,78.10
2018-03-23T03:00:02.270Z,77.80
2018-03-23T03:01:02.245Z,79.80
2018-03-23T03:02:02.212Z,84.30
2018-03-23T03:03:02.286Z,77.30
2018-03-23T03:04:02.168Z,76.50
2018-03-23T03:05:02.129Z,76.90
2018-03-23T03:06:02.123Z,80.30
2018-03-23T03:07:02.075Z,78.70
2018-03-23T03:08:02.051Z,82.70
2018-03-23T03:09:02.030Z,79.50
2018-03-23T03:10:02.007Z,74.90
2018-03-23T03:11:01.973Z,77.00
2018-03-23T03:12:01.948Z,74.00
2018-03-23T03:13:01.987Z,75.80
2018-03-23T03:14:01.898Z,78.30
2018-03-23T03:15:01.858Z,75.70
2018-03-23T03:16:01.844Z,75.50
2018-03-23T03:17:01.812Z,78.90
2018-03-23T03:18:01.785Z,72.00
2018-03-23T03:19:01.752Z,77.80
2018-03-23T03:20:01.724Z,81.50
2018-03-23T03:21:01.706Z,78.00
2018-03-23T03:22:01.666Z,81.20
2018-03-23T03:23:01.649Z,80.40
2018-03-23T03:24:01.614Z,73.80
2018-03-23T03:25:01.594Z,72.60
2018-03-23T03:26:01.564Z,75.90
2018-03-23T03:27:01.542Z,74.70
2018-03-23T03:28:01.514Z,73.30
2018-03-23T03:29:01.479Z,74.90
2018-03-23T03:30:01.456Z,73.60
2018-03-23T03:31:01.429Z,73.50
2018-03-23T03:32:01.412Z,73.10
2018-03-23T03:33:01.370Z,73.30
2018-03-23T03:34:01.356Z,69.80
2018-03-23T03:35:01.315Z,70.70
2018-03-23T03:36:01.299Z,68.10
2018-03-23T03:37:01.276Z,70.10
2018-03-23T03:38:01.244Z,67.10
2018-03-23T03:39:01.221Z,68.80
2018-03-23T03:40:01.189Z,68.00
2018-03-23T03:41:01.161Z,68.80
2018-03-23T03:42:01.132Z,61.30
2018-03-23T03:43:01.153Z,68.40
2018-03-23T03:44:01.073Z,67.10
2018-03-23T03:45:01.051Z,70.60
2018-03-23T03:46:01.024Z,69.30
2018-03-23T03:47:00.994Z,72.30
2018-03-23T03:48:00.965Z,67.70
2018-03-23T03:49:00.939Z,64.40
2018-03-23T03:50:00.912Z,73.40
2018-03-23T03:51:00.889Z,71.60
2018-03-23T03:52:00.859Z,70.90
2018-03-23T03:53:00.832Z,72.90
2018-03-23T03:54:00.814Z,70.10
2018-03-23T03:55:00.772Z,73.50
2018-03-23T03:56:00.755Z,73.70
2018-03-23T03:57:00.720Z,77.00
2018-03-23T03:58:00.695Z,80.30
2018-03-23T03:59:00.673Z,75.70
2018-03-23T04:00:00.638Z,76.20
2018-03-23T04:01:00.616Z,79.30
2018-03-23T04:02:00.585Z,80.70
2018-03-23T04:03:00.556Z,82.30
2018-03-23T04:04:00.538Z,83.20
2018-03-23T04:05:00.508Z,79.50
2018-03-23T04:06:00.478Z,80.90
2018-03-23T04:07:00.449Z,82.50
2018-03-23T04:08:00.418Z,86.10
2018-03-23T04:09:00.396Z,86.60
2018-03-23T04:10:00.368Z,88.60
2018-03-23T04:11:00.353Z,85.20
2018-03-23T04:12:00.314Z,87.60
2018-03-23T04:13:00.285Z,86.50
2018-03-23T04:14:00.261Z,92.30
2018-03-23T04:15:00.232Z,88.40
2018-03-23T04:16:00.203Z,94.70
2018-03-23T04:17:00.180Z,91.00
2018-03-23T04:18:00.155Z,89.10
2018-03-23T04:19:00.118Z,96.20
2018-03-23T04:20:00.097Z,94.80
2018-03-23T04:21:00.065Z,90.60
2018-03-23T04:22:00.047Z,96.60
2018-03-23T04:23:00.078Z,95.60
2018-03-23T04:23:59.990Z,98.20
2018-03-23T04:24:59.957Z,98.10
2018-03-23T04:25:59.930Z,97.40
2018-03-23T04:26:59.898Z,95.90
2018-03-23T04:27:59.877Z,100.70
2018-03-23T04:28:59.858Z,100.90
2018-03-23T04:29:59.823Z,102.50
2018-03-23T04:30:59.798Z,104.50
2018-03-23T04:31:59.773Z,108.50
2018-03-23T04:32:59.742Z,106.60
2018-03-23T04:33:59.713Z,107.90
2018-03-23T04:34:59.683Z,108.60
2018-03-23T04:35:59.658Z,104.00
2018-03-23T04:36:59.635Z,112.20
2018-03-23T04:37:59.606Z,116.90
2018-03-23T04:38:59.576Z,116.20
2018-03-23T04:39:59.548Z,118.10
2018-03-23T04:40:59.529Z,115.70
2018-03-23T04:41:59.496Z,114.50
2018-03-23T04:42:59.468Z,116.10
2018-03-23T04:43:59.444Z,115.80
2018-03-23T04:44:59.408Z,119.80
2018-03-23T04:45:59.389Z,122.40
2018-03-23T04:46:59.364Z,121.50
2018-03-23T04:47:59.324Z,119.90
2018-03-23T04:48:59.309Z,120.00
2018-03-23T04:49:59.278Z,118.50
2018-03-23T04:50:59.248Z,122.70
2018-03-23T04:51:59.225Z,120.70
2018-03-23T04:52:59.198Z,120.10
2018-03-23T04:53:59.169Z,122.60
2018-03-23T04:54:59.150Z,120.90
2018-03-23T04:55:59.107Z,120.70
2018-03-23T04:56:59.086Z,121.30
2018-03-23T04:57:59.066Z,118.70
2018-03-23T04:58:59.030Z,118.10
2018-03-23T04:59:58.998Z,116.30
2018-03-23T05:00:58.984Z,118.50
2018-03-23T05:01:58.950Z,124.80
2018-03-23T05:02:58.928Z,123.40
2018-03-23T05:03:58.901Z,118.00
2018-03-23T05:04:58.865Z,120.20
2018-03-23T05:05:58.847Z,118.20
2018-03-23T05:06:58.813Z,118.10
2018-03-23T05:07:58.799Z,122.20
2018-03-23T05:08:58.758Z,120.10
2018-03-23T05:09:58.733Z,119.00
2018-03-23T05:10:58.700Z,113.90
2018-03-23T05:11:58.702Z,120.90
2018-03-23T05:12:58.651Z,121.00
2018-03-23T05:13:58.625Z,113.10
2018-03-23T05:14:58.595Z,120.20
2018-03-23T05:15:58.566Z,124.50
2018-03-23T05:16:58.538Z,125.50
2018-03-23T05:17:58.519Z,128.30
2018-03-23T05:18:58.486Z,129.20
2018-03-23T05:19:58.454Z,134.00
2018-03-23T05:20:58.434Z,134.80
2018-03-23T05:21:58.400Z,138.10
2018-03-23T05:22:58.378Z,135.20
2018-03-23T05:23:58.341Z,136.70
2018-03-23T05:24:58.327Z,127.20
2018-03-23T05:25:58.294Z,144.40
2018-03-23T05:26:58.268Z,137.10
2018-03-23T05:27:58.234Z,141.50
2018-03-23T05:28:58.206Z,138.50
2018-03-23T05:29:58.187Z,133.70
2018-03-23T05:30:58.154Z,144.40
2018-03-23T05:31:58.121Z,138.60
2018-03-23T05:32:58.107Z,134.20
2018-03-23T05:33:58.072Z,131.30
2018-03-23T05:34:58.042Z,134.80
2018-03-23T05:35:58.020Z,129.20
2018-03-23T05:36:57.994Z,129.60
2018-03-23T05:37:57.972Z,137.10
2018-03-23T05:38:57.930Z,129.30
2018-03-23T05:39:57.903Z,130.20
2018-03-23T05:40:57.884Z,134.20
2018-03-23T05:41:57.860Z,137.20
2018-03-23T05:42:57.828Z,130.40
2018-03-23T05:43:57.819Z,137.10
2018-03-23T05:44:57.771Z,126.90
2018-03-23T05:45:57.748Z,125.00
2018-03-23T05:46:57.720Z,119.90
2018-03-23T05:47:57.694Z,122.90
2018-03-23T05:48:57.660Z,118.20
2018-03-23T05:49:57.637Z,115.90
2018-03-23T05:50:57.624Z,117.20
2018-03-23T05:51:57.571Z,120.70
2018-03-23T05:52:57.561Z,111.60
2018-03-23T05:53:57.528Z,108.90
2018-03-23T05:54:57.495Z,109.50
2018-03-23T05:55:57.463Z,108.80
2018-03-23T05:56:57.450Z,109.80
2018-03-23T05:57:57.414Z,106.00
2018-03-23T05:58:57.390Z,104.00
2018-03-23T05:59:57.382Z,106.50
2018-03-23T06:00:57.325Z,104.80
2018-03-23T06:01:57.302Z,101.20
2018-03-23T06:02:57.277Z,99.20
2018-03-23T06:03:57.247Z,95.40
2018-03-23T06:04:57.233Z,96.00
2018-03-23T06:05:57.200Z,92.40
2018-03-23T06:06:57.177Z,97.80
2018-03-23T06:07:57.143Z,96.70
2018-03-23T06:08:57.107Z,91.80
2018-03-23T06:09:57.093Z,96.80
2018-03-23T06:10:57.055Z,89.40
2018-03-23T06:11:57.039Z,86.90
2018-03-23T06:12:57.007Z,86.90
2018-03-23T06:13:56.980Z,89.20
2018-03-23T06:14:56.950Z,88.10
2018-03-23T06:15:56.926Z,84.40
2018-03-23T06:16:56.897Z,86.10
2018-03-23T06:17:56.867Z,85.00
2018-03-23T06:18:56.839Z,76.90
2018-03-23T06:19:56.810Z,77.30
2018-03-23T06:20:56.786Z,77.70
2018-03-23T06:21:56.761Z,80.60
2018-03-23T06:22:56.733Z,76.20
2018-03-23T06:23:56.703Z,73.30
2018-03-23T06:24:56.681Z,74.10
2018-03-23T06:25:56.646Z,76.20
2018-03-23T06:26:56.626Z,71.70
2018-03-23T06:27:56.620Z,74.50
2018-03-23T06:28:56.560Z,73.70
2018-03-23T06:29:56.543Z,75.60
2018-03-23T06:30:56.506Z,76.70
2018-03-23T06:31:56.500Z,76.20
2018-03-23T06:32:56.489Z,74.00
2018-03-23T06:33:56.436Z,74.50
2018-03-23T06:34:56.403Z,71.20
2018-03-23T06:35:56.370Z,67.50
2018-03-23T06:36:56.398Z,68.70
2018-03-23T06:37:56.491Z,64.70
2018-03-23T06:38:56.358Z,69.30
2018-03-23T06:39:56.283Z,67.90
2018-03-23T06:40:56.242Z,64.30
2018-03-23T06:41:56.215Z,65.30
2018-03-23T06:42:56.180Z,62.30
2018-03-23T06:43:56.165Z,61.10
2018-03-23T06:44:56.126Z,63.60
2018-03-23T06:45:56.097Z,60.20
2018-03-23T06:46:56.074Z,62.80
2018-03-23T06:47:56.056Z,63.10
2018-03-23T06:48:56.020Z,59.90
2018-03-23T06:49:55.986Z,63.60
2018-03-23T06:50:55.959Z,62.50
2018-03-23T06:51:55.939Z,61.50
2018-03-23T06:52:55.907Z,63.30
2018-03-23T06:53:55.873Z,60.50
2018-03-23T06:54:55.859Z,61.80
2018-03-23T06:55:55.819Z,58.20
2018-03-23T06:56:55.801Z,58.30
2018-03-23T06:57:55.774Z,60.00
2018-03-23T06:58:55.732Z,57.60
2018-03-23T06:59:55.716Z,59.10
2018-03-23T07:00:55.685Z,59.50
2018-03-23T07:01:55.665Z,59.40
2018-03-23T07:02:55.635Z,58.70
2018-03-23T07:03:55.604Z,56.30
2018-03-23T07:04:55.583Z,58.70
2018-03-23T07:05:55.549Z,59.20
2018-03-23T07:06:55.519Z,57.10
2018-03-23T07:07:55.490Z,54.00
2018-03-23T07:08:55.486Z,53.50
2018-03-23T07:09:55.449Z,55.30
2018-03-23T07:10:55.469Z,54.30
2018-03-23T07:11:55.389Z,55.60
2018-03-23T07:12:55.357Z,57.10
2018-03-23T07:13:55.329Z,54.80
2018-03-23T07:14:55.304Z,51.50
2018-03-23T07:15:55.269Z,51.70
2018-03-23T07:16:55.251Z,51.10
2018-03-23T07:17:55.224Z,52.30
2018-03-23T07:18:55.199Z,51.40
2018-03-23T07:19:55.167Z,49.00
2018-03-23T07:20:55.199Z,50.10
2018-03-23T07:21:55.121Z,52.10
2018-03-23T07:22:55.077Z,51.00
2018-03-23T07:23:55.138Z,53.80
2018-03-23T07:24:55.024Z,50.00
2018-03-23T07:25:55.000Z,50.60
2018-03-23T07:26:54.977Z,50.20
2018-03-23T07:27:54.999Z,47.90
2018-03-23T07:28:54.929Z,50.40
2018-03-23T07:29:54.897Z,48.90
2018-03-23T07:30:54.905Z,47.80
2018-03-23T07:31:54.843Z,46.50
2018-03-23T07:32:54.853Z,48.80
2018-03-23T07:33:54.785Z,49.60
2018-03-23T07:34:54.750Z,49.60
2018-03-23T07:35:54.728Z,50.30
2018-03-23T07:36:54.740Z,51.00
2018-03-23T07:37:54.670Z,48.30
2018-03-23T07:38:54.642Z,48.30
2018-03-23T07:39:54.622Z,49.10
2018-03-23T07:40:54.585Z,43.50
2018-03-23T07:41:54.626Z,45.00
2018-03-23T07:42:54.530Z,45.90
2018-03-23T07:43:54.563Z,45.30
2018-03-23T07:44:54.554Z,45.80
2018-03-23T07:45:54.454Z,45.20
2018-03-23T07:46:54.427Z,47.50
2018-03-23T07:47:54.398Z,47.20
2018-03-23T07:48:54.443Z,46.40
2018-03-23T07:49:54.340Z,47.00
2018-03-23T07:50:54.323Z,48.00
2018-03-23T07:51:54.291Z,48.20
2018-03-23T07:52:54.266Z,51.10
2018-03-23T07:53:54.241Z,48.50
2018-03-23T07:54:54.206Z,49.40
2018-03-23T07:55:54.243Z,51.40
2018-03-23T07:56:54.152Z,49.70
2018-03-23T07:57:54.120Z,48.30
2018-03-23T07:58:54.167Z,46.00
2018-03-23T07:59:54.072Z,46.60
2018-03-23T08:00:54.047Z,43.00
2018-03-23T08:01:54.076Z,44.50
2018-03-23T08:02:53.997Z,47.20
2018-03-23T08:03:53.966Z,44.90
2018-03-23T08:04:53.972Z,45.30
2018-03-23T08:05:53.987Z,43.10
2018-03-23T08:06:53.893Z,41.90
2018-03-23T08:07:53.848Z,43.70
2018-03-23T08:08:53.900Z,42.10
2018-03-23T08:09:53.842Z,40.90
2018-03-23T08:10:53.799Z,41.30
2018-03-23T08:11:53.778Z,42.80
2018-03-23T08:12:53.771Z,41.70
2018-03-23T08:13:53.698Z,43.10
2018-03-23T08:14:53.661Z,42.50
2018-03-23T08:15:53.637Z,44.50
2018-03-23T08:16:53.632Z,42.80
2018-03-23T08:17:53.578Z,42.90
2018-03-23T08:18:53.562Z,42.20
2018-03-23T08:19:53.574Z,41.00
2018-03-23T08:20:53.502Z,40.90
2018-03-23T08:21:53.479Z,39.60
2018-03-23T08:22:53.453Z,40.70
2018-03-23T08:23:53.510Z,41.90
2018-03-23T08:24:53.466Z,41.40
2018-03-23T08:25:53.377Z,41.00
2018-03-23T08:26:53.340Z,42.10
2018-03-23T08:27:53.345Z,44.80
2018-03-23T08:28:53.346Z,42.20
2018-03-23T08:29:53.287Z,41.40
2018-03-23T08:30:53.311Z,42.40
2018-03-23T08:31:53.243Z,44.00
2018-03-23T08:32:53.180Z,44.80
2018-03-23T08:33:53.159Z,43.20
2018-03-23T08:34:53.124Z,42.70
2018-03-23T08:35:53.107Z,41.20
2018-03-23T08:36:53.147Z,38.70
2018-03-23T08:37:53.039Z,39.40
2018-03-23T08:38:53.020Z,40.20
2018-03-23T08:39:52.992Z,38.70
2018-03-23T08:40:52.977Z,37.80
2018-03-23T08:41:52.952Z,37.00
2018-03-23T08:42:52.912Z,37.00
2018-03-23T08:43:52.894Z,38.50
2018-03-23T08:44:52.892Z,38.00
2018-03-23T08:45:52.830Z,36.40
2018-03-23T08:46:52.792Z,34.60
2018-03-23T08:47:52.771Z,36.10
2018-03-23T08:48:52.748Z,36.50
2018-03-23T08:49:52.717Z,36.50
2018-03-23T08:50:52.737Z,34.70
2018-03-23T08:51:52.660Z,34.60
2018-03-23T08:52:52.702Z,34.20
2018-03-23T08:53:52.620Z,35.90
2018-03-23T08:54:53.199Z,36.50
2018-03-23T08:55:52.598Z,36.80
2018-03-23T08:56:52.528Z,35.20
2018-03-23T08:57:52.518Z,34.90
2018-03-23T08:58:52.475Z,32.20
2018-03-23T08:59:52.444Z,32.90
2018-03-23T09:00:52.431Z,32.90
2018-03-23T09:01:52.395Z,32.80
2018-03-23T09:02:52.373Z,31.70
2018-03-23T09:03:52.439Z,32.30
2018-03-23T09:04:52.391Z,33.40
2018-03-23T09:05:52.288Z,33.40
2018-03-23T09:06:52.263Z,32.70
2018-03-23T09:07:52.244Z,30.60
2018-03-23T09:08:52.203Z,31.40
2018-03-23T09:09:52.231Z,32.60
2018-03-23T09:10:52.198Z,31.50
2018-03-23T09:11:52.185Z,31.30
2018-03-23T09:12:52.236Z,31.80
2018-03-23T09:13:52.145Z,31.40
2018-03-23T09:14:52.070Z,33.00
2018-03-23T09:15:52.025Z,32.30
2018-03-23T09:16:52.117Z,30.50
2018-03-23T09:17:51.983Z,30.90
2018-03-23T09:18:51.940Z,29.00
2018-03-23T09:19:51.932Z,30.30
2018-03-23T09:20:51.937Z,27.70
2018-03-23T09:21:51.906Z,28.10
2018-03-23T09:22:51.837Z,28.50
2018-03-23T09:23:51.918Z,29.30
2018-03-23T09:24:51.792Z,30.10
2018-03-23T09:25:51.763Z,29.70
2018-03-23T09:26:51.820Z,28.90
2018-03-23T09:27:51.736Z,28.50
2018-03-23T09:28:51.727Z,27.80
2018-03-23T09:29:51.714Z,27.20
2018-03-23T09:30:51.622Z,26.60
2018-03-23T09:31:51.631Z,24.60
2018-03-23T09:32:51.577Z,25.70
2018-03-23T09:33:51.577Z,27.10
2018-03-23T09:34:51.525Z,25.40
2018-03-23T09:35:51.552Z,26.10
2018-03-23T09:36:51.526Z,26.70
2018-03-23T09:37:51.445Z,26.20
2018-03-23T09:38:51.554Z,24.90
2018-03-23T09:39:51.449Z,25.20
2018-03-23T09:40:51.366Z,26.10
2018-03-23T09:41:51.337Z,24.70
2018-03-23T09:42:51.307Z,26.10
2018-03-23T09:43:51.286Z,25.60
2018-03-23T09:44:51.317Z,24.50
2018-03-23T09:45:51.222Z,26.60
2018-03-23T09:46:51.207Z,25.90
2018-03-23T09:47:51.299Z,24.60
2018-03-23T09:48:51.151Z,25.10
2018-03-23T09:49:51.180Z,24.90
2018-03-23T09:50:51.157Z,25.90
2018-03-23T09:51:51.144Z,26.90
2018-03-23T09:52:51.043Z,26.90
2018-03-23T09:53:51.023Z,26.90
2018-03-23T09:54:50.988Z,25.80
2018-03-23T09:55:51.005Z,27.10
2018-03-23T09:56:50.938Z,26.10
2018-03-23T09:57:50.908Z,27.10
2018-03-23T09:58:50.953Z,27.40
2018-03-23T09:59:50.852Z,27.20
2018-03-23T10:00:50.829Z,25.40
2018-03-23T10:01:50.812Z,26.80
2018-03-23T10:02:50.817Z,26.10
2018-03-23T10:03:50.911Z,25.80
2018-03-23T10:04:50.731Z,26.00
2018-03-23T10:05:50.728Z,24.20
2018-03-23T10:06:50.743Z,21.80
2018-03-23T10:07:50.648Z,24.30
2018-03-23T10:08:50.622Z,23.00
2018-03-23T10:09:50.665Z,22.30
2018-03-23T10:10:50.623Z,24.20
2018-03-23T10:11:50.584Z,24.10
2018-03-23T10:12:50.556Z,22.90
2018-03-23T10:13:50.497Z,23.70
2018-03-23T10:14:50.540Z,23.80
2018-03-23T10:15:50.503Z,23.10
2018-03-23T10:16:50.514Z,23.50
2018-03-23T10:17:50.421Z,22.60
2018-03-23T10:18:50.431Z,22.70
2018-03-23T10:19:50.380Z,24.20
2018-03-23T10:20:50.305Z,24.40
2018-03-23T10:21:50.288Z,22.10
2018-03-23T10:22:50.252Z,24.20
2018-03-23T10:23:50.291Z,22.90
2018-03-23T10:24:50.215Z,23.90
2018-03-23T10:25:50.179Z,22.50
2018-03-23T10:26:50.212Z,23.10
2018-03-23T10:27:50.209Z,22.50
2018-03-23T10:28:50.134Z,22.60
2018-03-23T10:29:50.184Z,23.10
2018-03-23T10:30:50.133Z,25.10
2018-03-23T10:31:50.033Z,24.70
2018-03-23T10:32:49.991Z,24.40
2018-03-23T10:33:50.012Z,24.20
2018-03-23T10:34:49.948Z,23.50
2018-03-23T10:35:49.921Z,23.10
2018-03-23T10:36:49.888Z,22.50
2018-03-23T10:37:49.994Z,23.70
2018-03-23T10:38:49.845Z,23.30
2018-03-23T10:39:49.887Z,23.40
2018-03-23T10:40:49.788Z,23.40
2018-03-23T10:41:49.765Z,22.90
2018-03-23T10:42:49.755Z,23.90
2018-03-23T10:43:49.784Z,22.40
2018-03-23T10:44:49.756Z,21.30
2018-03-23T10:45:49.731Z,21.50
2018-03-23T10:46:49.628Z,22.80
2018-03-23T10:47:49.601Z,24.90
2018-03-23T10:48:49.634Z,21.90
2018-03-23T10:49:49.554Z,21.70
2018-03-23T10:50:49.525Z,22.20
2018-03-23T10:51:49.494Z,21.80
2018-03-23T10:52:49.475Z,20.90
2018-03-23T10:53:49.444Z,21.80
2018-03-23T10:54:49.426Z,23.50
2018-03-23T10:55:49.399Z,22.80
2018-03-23T10:56:49.371Z,21.90
2018-03-23T10:57:49.351Z,22.10
2018-03-23T10:58:49.315Z,23.40
2018-03-23T10:59:49.286Z,24.60
2018-03-23T11:00:49.270Z,22.50
2018-03-23T11:01:49.241Z,21.60
2018-03-23T11:02:49.219Z,22.50
2018-03-23T11:03:49.216Z,21.90
2018-03-23T11:04:49.162Z,21.30
2018-03-23T11:05:49.146Z,20.20
2018-03-23T11:06:49.110Z,22.30
2018-03-23T11:07:49.088Z,21.60
2018-03-23T11:08:49.063Z,22.80
2018-03-23T11:09:49.044Z,25.00
2018-03-23T11:10:49.010Z,25.30
2018-03-23T11:11:48.983Z,26.60
2018-03-23T11:12:48.966Z,26.30
2018-03-23T11:13:48.934Z,27.50
2018-03-23T11:14:48.915Z,28.70
2018-03-23T11:15:48.886Z,27.10
2018-03-23T11:16:48.857Z,27.70
2018-03-23T11:17:48.825Z,26.00
2018-03-23T11:18:48.833Z,26.10
2018-03-23T11:19:48.864Z,27.90
2018-03-23T11:20:48.764Z,26.00
2018-03-23T11:21:48.745Z,26.60
2018-03-23T11:22:48.735Z,26.50
2018-03-23T11:23:48.678Z,28.20
2018-03-23T11:24:48.653Z,25.50
2018-03-23T11:25:48.673Z,25.30
2018-03-23T11:26:48.637Z,24.90
2018-03-23T11:27:48.572Z,26.30
2018-03-23T11:28:48.560Z,25.10
2018-03-23T11:29:48.529Z,24.80
2018-03-23T11:30:48.500Z,22.40
2018-03-23T11:31:48.487Z,23.30
2018-03-23T11:32:48.441Z,22.50
2018-03-23T11:33:48.429Z,24.20
2018-03-23T11:34:48.401Z,21.30
2018-03-23T11:35:48.366Z,20.30
2018-03-23T11:36:48.344Z,20.60
2018-03-23T11:37:48.315Z,20.40
2018-03-23T11:38:48.292Z,20.40
2018-03-23T11:39:48.289Z,21.00
2018-03-23T11:40:48.237Z,19.50
2018-03-23T11:41:48.214Z,22.50
2018-03-23T11:42:48.279Z,22.70
2018-03-23T11:43:48.174Z,22.20
2018-03-23T11:44:48.203Z,23.90
2018-03-23T11:45:48.160Z,25.10
2018-03-23T11:46:48.090Z,25.70
2018-03-23T11:47:48.056Z,26.80
2018-03-23T11:48:48.077Z,28.80
2018-03-23T11:49:48.003Z,26.00
2018-03-23T11:50:48.048Z,29.50
2018-03-23T11:51:47.962Z,27.40
2018-03-23T11:52:47.971Z,26.90
2018-03-23T11:53:47.913Z,26.10
2018-03-23T11:54:47.905Z,25.20
2018-03-23T11:55:47.858Z,25.00
2018-03-23T11:56:47.824Z,23.40
2018-03-23T11:57:47.804Z,24.90
2018-03-23T11:58:47.767Z,24.30
2018-03-23T11:59:47.746Z,23.90
2018-03-23T12:00:47.722Z,24.20
2018-03-23T12:01:47.858Z,23.40
2018-03-23T12:02:47.679Z,23.90
2018-03-23T12:03:47.650Z,23.60
2018-03-23T12:04:47.613Z,23.90
2018-03-23T12:05:47.598Z,24.30
2018-03-23T12:06:47.565Z,22.30
2018-03-23T12:07:47.544Z,23.00
2018-03-23T12:08:47.515Z,23.00
2018-03-23T12:09:47.491Z,23.00
2018-03-23T12:10:47.522Z,25.40
2018-03-23T12:11:47.444Z,25.60
2018-03-23T12:12:47.406Z,26.20
2018-03-23T12:13:47.444Z,26.40
2018-03-23T12:14:47.360Z,26.50
2018-03-23T12:15:47.323Z,26.80
2018-03-23T12:16:47.313Z,26.50
2018-03-23T12:17:47.282Z,25.50
2018-03-23T12:18:47.252Z,25.20
2018-03-23T12:19:47.229Z,25.30
2018-03-23T12:20:47.200Z,26.20
2018-03-23T12:21:47.171Z,25.40
2018-03-23T12:22:47.151Z,25.60
2018-03-23T12:23:47.126Z,26.70
2018-03-23T12:24:47.101Z,28.60
2018-03-23T12:25:47.085Z,27.60
2018-03-23T12:26:47.046Z,28.90
2018-03-23T12:27:47.012Z,31.60
2018-03-23T12:28:47.016Z,29.90
2018-03-23T12:29:46.999Z,27.40
2018-03-23T12:30:46.949Z,29.10
2018-03-23T12:31:46.964Z,29.00
2018-03-23T12:32:46.898Z,29.70
2018-03-23T12:33:46.921Z,28.10
2018-03-23T12:34:46.862Z,28.50
2018-03-23T12:35:46.871Z,28.90
2018-03-23T12:36:46.794Z,29.90
2018-03-23T12:37:46.810Z,31.30
2018-03-23T12:38:46.774Z,31.10
2018-03-23T12:39:46.703Z,29.90
2018-03-23T12:40:46.684Z,30.70
2018-03-23T12:41:46.648Z,29.90
2018-03-23T12:42:46.624Z,29.00
2018-03-23T12:43:46.604Z,31.10
2018-03-23T12:44:46.626Z,32.10
2018-03-23T12:45:46.546Z,32.40
2018-03-23T12:46:46.627Z,31.10
2018-03-23T12:47:46.489Z,31.50
2018-03-23T12:48:46.471Z,31.20